Time;durP1;ratioP1;P1;durP2;ratioP2;P2;SDS_P1;SDS_P2;PMS_P1;PMS_P2;Temp;Humidity;BMP_temperature;BMP_pressure;BME280_temperature;BME280_humidity;BME280_pressure;Samples;Min_cycle;Max_cycle;Signal;HPM_P1;HPM_P2
2022/03/28 00:00:36;;;;;;;3.20;3.00;;;21.10;40.40;;;;;;4897727;29;20446;-82
2022/03/28 00:03:05;;;;;;;3.60;3.03;;;21.10;40.30;;;;;;4901607;29;20485;-82
2022/03/28 00:05:33;;;;;;;3.80;3.00;;;21.10;40.40;;;;;;4898896;29;20524;-82
2022/03/28 00:08:02;;;;;;;3.30;3.07;;;21.00;40.30;;;;;;4897616;29;20469;-82
2022/03/28 00:10:31;;;;;;;4.20;3.70;;;21.00;40.30;;;;;;4888977;29;20461;-82
2022/03/28 00:12:59;;;;;;;3.60;3.30;;;21.00;40.30;;;;;;4888741;29;20450;-82
2022/03/28 00:15:30;;;;;;;3.70;2.97;;;21.00;40.40;;;;;;4901022;29;20417;-82
2022/03/28 00:18:07;;;;;;;3.50;3.27;;;21.00;40.30;;;;;;4896052;29;20466;-82
2022/03/28 00:20:38;;;;;;;3.30;3.10;;;21.00;40.50;;;;;;4893800;29;20502;-81
2022/03/28 00:23:07;;;;;;;3.90;3.40;;;21.00;40.40;;;;;;4896794;29;20565;-81
2022/03/28 00:25:35;;;;;;;3.40;3.10;;;20.90;40.40;;;;;;4902102;29;20485;-82
2022/03/28 00:28:04;;;;;;;3.80;3.43;;;21.00;40.40;;;;;;4891511;29;20475;-82
2022/03/28 00:30:55;;;;;;;3.57;2.97;;;20.90;40.40;;;;;;4892240;29;20450;-82
2022/03/28 00:33:29;;;;;;;3.83;3.33;;;20.90;40.60;;;;;;4895512;29;20462;-82
2022/03/28 00:36:02;;;;;;;3.47;3.20;;;20.90;40.50;;;;;;4884815;29;20469;-83
2022/03/28 00:38:30;;;;;;;3.30;3.10;;;20.90;40.40;;;;;;4882902;29;20462;-83
2022/03/28 00:40:58;;;;;;;4.13;3.73;;;20.80;40.40;;;;;;4906706;29;20452;-81
2022/03/28 00:43:27;;;;;;;3.33;3.07;;;20.80;40.50;;;;;;4906648;29;20450;-83
2022/03/28 00:45:56;;;;;;;4.33;3.40;;;20.80;40.50;;;;;;4883508;29;20478;-82
2022/03/28 00:48:26;;;;;;;3.57;3.23;;;20.70;40.50;;;;;;4884215;29;20509;-83
2022/03/28 00:50:57;;;;;;;3.00;2.80;;;20.70;40.60;;;;;;4886574;29;20453;-83
2022/03/28 00:53:39;;;;;;;3.60;3.30;;;20.70;40.60;;;;;;4889405;29;20477;-82
2022/03/28 00:56:45;;;;;;;3.10;2.90;;;20.70;40.60;;;;;;4889141;29;20461;-84
2022/03/28 01:00:26;;;;;;;3.07;2.87;;;20.70;40.70;;;;;;4882981;29;20445;-82
2022/03/28 01:04:16;;;;;;;3.07;2.87;;;20.60;40.90;;;;;;4896415;29;20455;-83
2022/03/28 01:07:37;;;;;;;3.63;3.33;;;20.60;40.80;;;;;;4883294;29;20482;-82
2022/03/28 01:14:02;;;;;;;3.00;2.80;;;20.60;41.00;;;;;;4901234;29;20481;-81
2022/03/28 01:27:45;;;;;;;3.10;2.80;;;20.40;40.80;;;;;;4855180;29;20483;-83
2022/03/28 01:34:15;;;;;;;4.37;2.87;;;20.40;40.90;;;;;;4900823;29;20470;-83
2022/03/28 01:40:40;;;;;;;5.30;2.47;;;20.40;41.20;;;;;;4906072;29;20442;-83
2022/03/28 01:43:15;;;;;;;3.13;2.93;;;20.40;40.90;;;;;;4905480;29;20458;-82
2022/03/28 01:49:08;;;;;;;3.13;2.77;;;20.40;40.80;;;;;;4910869;29;20474;-83
2022/03/28 01:52:09;;;;;;;4.33;3.30;;;20.40;41.00;;;;;;4908047;29;20457;-82
2022/03/28 01:55:03;;;;;;;3.27;2.50;;;20.30;40.80;;;;;;4910826;29;20437;-82
2022/03/28 01:58:08;;;;;;;2.90;2.70;;;20.30;40.90;;;;;;4926031;29;20529;-82
2022/03/28 02:00:52;;;;;;;3.10;2.90;;;20.30;40.90;;;;;;4891176;29;20459;-82
2022/03/28 02:03:43;;;;;;;3.00;2.77;;;20.30;41.10;;;;;;4889484;29;20483;-82
2022/03/28 02:06:39;;;;;;;3.00;2.80;;;20.30;41.00;;;;;;4886616;29;20486;-82
2022/03/28 02:09:37;;;;;;;3.70;2.40;;;20.20;40.90;;;;;;4896783;29;20465;-81
2022/03/28 02:12:21;;;;;;;3.03;2.83;;;20.30;41.00;;;;;;4914464;29;20511;-83
2022/03/28 02:15:37;;;;;;;3.03;2.83;;;20.10;40.80;;;;;;4897367;29;20430;-82
2022/03/28 02:18:50;;;;;;;2.97;2.77;;;20.20;41.10;;;;;;4906726;29;20549;-82
2022/03/28 02:25:06;;;;;;;2.70;2.50;;;20.10;41.00;;;;;;4905942;29;20462;-82
2022/03/28 02:28:08;;;;;;;2.67;2.57;;;20.10;41.00;;;;;;4895458;29;20530;-82
2022/03/28 02:30:59;;;;;;;2.93;2.80;;;20.00;41.00;;;;;;4916088;29;20442;-81
2022/03/28 02:33:41;;;;;;;2.50;2.40;;;20.10;41.00;;;;;;4916694;29;20445;-81
2022/03/28 02:37:18;;;;;;;3.07;2.70;;;20.00;41.10;;;;;;4912377;29;20494;-82
2022/03/28 02:40:47;;;;;;;3.07;2.87;;;20.00;41.20;;;;;;4750205;30;20523;-82
2022/03/28 02:43:48;;;;;;;2.90;2.70;;;19.90;41.30;;;;;;4778045;30;20490;-82
2022/03/28 02:46:49;;;;;;;3.67;3.00;;;19.90;41.30;;;;;;4770797;30;20487;-82
2022/03/28 02:49:51;;;;;;;2.70;2.50;;;19.90;41.10;;;;;;4777549;30;20512;-82
2022/03/28 02:53:02;;;;;;;3.20;3.00;;;19.90;41.00;;;;;;4776813;30;20462;-82
2022/03/28 02:55:51;;;;;;;2.87;2.67;;;19.80;41.30;;;;;;4782335;30;20455;-82
2022/03/28 02:58:36;;;;;;;2.97;2.77;;;19.90;41.20;;;;;;4770366;30;20463;-82
2022/03/28 03:01:13;;;;;;;2.87;2.67;;;19.90;41.20;;;;;;4783451;30;20463;-82
2022/03/28 03:06:40;;;;;;;3.00;2.80;;;19.80;41.10;;;;;;4902969;29;20496;-81
2022/03/28 03:09:10;;;;;;;3.00;2.80;;;19.80;41.20;;;;;;4906335;29;20513;-82
2022/03/28 03:11:43;;;;;;;2.70;2.50;;;19.80;41.10;;;;;;4905657;29;20457;-82
2022/03/28 03:14:16;;;;;;;3.17;2.87;;;19.80;41.20;;;;;;4906343;29;20450;-82
2022/03/28 03:16:47;;;;;;;2.97;2.77;;;19.80;41.30;;;;;;4907404;29;20485;-82
2022/03/28 03:19:26;;;;;;;3.30;3.10;;;19.80;41.20;;;;;;4901699;29;20454;-82
2022/03/28 03:22:05;;;;;;;3.60;3.30;;;19.70;41.20;;;;;;4888968;29;20454;-82
2022/03/28 03:24:47;;;;;;;2.90;2.70;;;19.60;41.20;;;;;;4888768;29;20487;-82
2022/03/28 03:27:24;;;;;;;2.57;2.37;;;19.60;41.50;;;;;;4888643;29;20492;-82
2022/03/28 03:29:58;;;;;;;2.60;2.40;;;19.60;41.50;;;;;;4888753;29;20522;-82
2022/03/28 03:32:33;;;;;;;3.23;2.73;;;19.60;41.40;;;;;;4896877;29;20510;-80
2022/03/28 03:35:08;;;;;;;2.90;2.70;;;19.60;41.40;;;;;;4906937;29;20485;-83
2022/03/28 03:37:36;;;;;;;2.80;2.60;;;19.60;41.50;;;;;;4906784;29;20466;-83
2022/03/28 03:40:05;;;;;;;2.83;2.60;;;19.60;41.50;;;;;;4906196;29;20555;-82
2022/03/28 03:42:34;;;;;;;2.53;2.43;;;19.60;41.30;;;;;;4906274;29;20461;-82
2022/03/28 03:45:05;;;;;;;2.80;2.60;;;19.50;41.30;;;;;;4906797;29;20488;-82
2022/03/28 03:47:33;;;;;;;2.63;2.50;;;19.50;41.30;;;;;;4906191;29;20493;-83
2022/03/28 03:50:03;;;;;;;3.20;3.00;;;19.50;41.50;;;;;;4907504;29;20478;-82
2022/03/28 03:52:32;;;;;;;2.80;2.60;;;19.50;41.50;;;;;;4908668;29;20462;-82
2022/03/28 03:55:01;;;;;;;2.43;2.23;;;19.50;41.50;;;;;;4897113;29;20455;-83
2022/03/28 03:57:30;;;;;;;3.43;3.17;;;19.50;41.30;;;;;;4887037;29;20482;-83
2022/03/28 03:59:59;;;;;;;3.00;2.80;;;19.50;42.00;;;;;;4885724;29;20450;-83
2022/03/28 04:02:30;;;;;;;2.60;2.40;;;19.40;42.00;;;;;;4887527;29;20505;-83
2022/03/28 04:05:00;;;;;;;2.27;2.17;;;19.40;41.40;;;;;;4887153;29;20525;-81
2022/03/28 04:07:30;;;;;;;3.20;2.90;;;19.40;42.10;;;;;;4887827;29;20486;-82
2022/03/28 04:10:02;;;;;;;3.20;2.97;;;19.40;41.50;;;;;;4907729;29;20456;-83
2022/03/28 04:12:33;;;;;;;2.80;2.60;;;19.40;41.60;;;;;;4903273;29;20453;-83
2022/03/28 04:15:02;;;;;;;2.00;1.90;;;19.30;41.50;;;;;;4903819;29;20461;-83
2022/03/28 04:17:34;;;;;;;2.47;2.37;;;19.30;41.60;;;;;;4904152;29;20549;-84
2022/03/28 04:20:03;;;;;;;2.40;2.20;;;19.40;41.50;;;;;;4903693;29;20477;-83
2022/03/28 04:22:33;;;;;;;2.50;2.30;;;19.30;41.40;;;;;;4903196;29;20450;-83
2022/03/28 04:25:02;;;;;;;2.90;2.60;;;19.30;41.70;;;;;;4902229;29;20450;-83
2022/03/28 04:27:30;;;;;;;2.90;2.70;;;19.30;41.60;;;;;;4905478;29;20481;-83
2022/03/28 04:30:17;;;;;;;2.30;2.20;;;19.30;41.60;;;;;;4911354;29;20484;-84
2022/03/28 04:40:05;;;;;;;2.20;2.10;;;19.20;41.90;;;;;;4907427;29;20488;-81
2022/03/28 04:43:08;;;;;;;2.20;2.10;;;19.20;42.00;;;;;;4899898;29;20450;-86
2022/03/28 04:52:45;;;;;;;3.43;2.57;;;19.10;41.90;;;;;;4877552;29;20451;-82
2022/03/28 04:58:41;;;;;;;2.53;2.33;;;19.10;42.00;;;;;;4888158;29;20470;-82
2022/03/28 05:01:39;;;;;;;2.67;2.57;;;19.10;42.00;;;;;;4889641;29;20477;-82
2022/03/28 05:04:17;;;;;;;2.57;2.47;;;19.10;42.00;;;;;;4908948;29;20473;-82
2022/03/28 05:14:09;;;;;;;5.00;2.80;;;19.10;42.10;;;;;;4898403;29;20466;-81
2022/03/28 05:17:02;;;;;;;;;;;;;;;;;;;;;
2022/03/28 05:20:02;;;;;;;2.40;2.20;;;19.00;42.00;;;;;;4904784;29;20564;-82
2022/03/28 05:50:26;;;;;;;2.70;2.60;;;18.80;42.50;;;;;;4876724;29;20481;-82
2022/03/28 05:53:05;;;;;;;2.13;2.03;;;18.80;42.40;;;;;;4907802;29;20449;-82
2022/03/28 05:55:58;;;;;;;2.17;2.07;;;18.80;42.30;;;;;;4913288;29;20461;-82
2022/03/28 05:59:09;;;;;;;;;;;;;;;;;;;;;
2022/03/28 06:02:31;;;;;;;;;;;;;;;;;;;;;
2022/03/28 06:05:27;;;;;;;2.57;2.47;;;18.80;42.50;;;;;;4889440;29;20498;-82
2022/03/28 06:09:28;;;;;;;2.60;2.40;;;18.80;42.40;;;;;;4890299;29;20486;-83
2022/03/28 06:12:13;;;;;;;2.53;2.43;;;18.70;42.40;;;;;;4829819;29;20474;-82
2022/03/28 06:15:04;;;;;;;3.07;2.33;;;18.80;42.40;;;;;;4866865;29;20496;-82
2022/03/28 06:17:50;;;;;;;2.73;2.50;;;18.70;42.40;;;;;;4905266;29;20462;-82
2022/03/28 06:20:32;;;;;;;2.90;2.43;;;18.70;42.30;;;;;;4907267;29;20549;-82
2022/03/28 06:26:48;;;;;;;2.23;2.13;;;18.70;42.60;;;;;;4907441;29;20462;-82
2022/03/28 06:29:21;;;;;;;2.00;1.87;;;18.60;42.50;;;;;;4913704;29;20478;-82
2022/03/28 06:31:51;;;;;;;2.30;2.20;;;18.70;42.40;;;;;;4908087;29;20469;-83
2022/03/28 06:34:20;;;;;;;2.50;2.30;;;18.70;42.40;;;;;;4907386;29;20482;-83
2022/03/28 06:36:48;;;;;;;2.17;1.93;;;18.70;42.40;;;;;;4907788;29;20529;-82
2022/03/28 06:39:17;;;;;;;2.43;2.17;;;18.70;42.50;;;;;;4906585;29;20487;-83
2022/03/28 06:41:45;;;;;;;2.20;2.10;;;18.70;42.40;;;;;;4908347;29;20485;-83
2022/03/28 06:44:14;;;;;;;2.50;2.10;;;18.70;42.40;;;;;;4908228;29;20457;-82
2022/03/28 06:46:44;;;;;;;3.00;2.30;;;18.70;42.40;;;;;;4911725;29;20470;-82
2022/03/28 06:49:16;;;;;;;2.50;2.30;;;18.80;42.40;;;;;;4908243;29;20497;-83
2022/03/28 06:51:44;;;;;;;2.33;2.23;;;18.70;42.30;;;;;;4908792;29;20483;-82
2022/03/28 06:54:14;;;;;;;2.10;2.00;;;18.70;42.40;;;;;;4908832;29;20450;-83
2022/03/28 06:56:45;;;;;;;2.20;2.10;;;18.70;42.30;;;;;;4907139;29;20472;-83
2022/03/28 06:59:14;;;;;;;2.50;2.30;;;18.70;43.00;;;;;;4907958;29;20521;-82
2022/03/28 07:01:43;;;;;;;2.50;2.30;;;18.70;42.50;;;;;;4914110;29;20471;-83
2022/03/28 07:04:13;;;;;;;2.10;2.00;;;18.70;42.50;;;;;;4900649;29;20473;-82
2022/03/28 07:06:46;;;;;;;2.70;2.13;;;18.70;42.40;;;;;;4907915;29;20477;-82
2022/03/28 07:09:15;;;;;;;2.17;2.07;;;18.70;42.50;;;;;;4905799;29;20545;-82
2022/03/28 07:11:45;;;;;;;2.53;2.10;;;18.70;42.40;;;;;;4910835;29;20450;-83
2022/03/28 07:14:16;;;;;;;2.17;2.07;;;18.70;42.50;;;;;;4906432;29;20456;-82
2022/03/28 07:16:44;;;;;;;1.70;1.60;;;18.70;42.40;;;;;;4906199;29;20476;-82
2022/03/28 07:19:13;;;;;;;1.90;1.80;;;18.70;42.40;;;;;;4905621;29;20489;-81
2022/03/28 07:21:44;;;;;;;1.80;1.70;;;18.80;42.50;;;;;;4905794;29;20454;-82
2022/03/28 07:24:12;;;;;;;2.10;2.00;;;18.80;42.40;;;;;;4905879;29;20453;-81
2022/03/28 07:26:44;;;;;;;2.20;2.10;;;18.80;42.40;;;;;;4909423;29;20508;-82
2022/03/28 07:29:13;;;;;;;2.60;1.80;;;18.80;42.30;;;;;;4897995;29;20506;-81
2022/03/28 07:31:42;;;;;;;2.27;2.10;;;18.80;42.30;;;;;;4905699;29;20462;-81
2022/03/28 07:36:58;;;;;;;2.00;1.90;;;18.80;42.30;;;;;;4905923;29;20485;-81
2022/03/28 07:39:27;;;;;;;2.13;2.03;;;18.90;42.20;;;;;;4905093;29;20446;-81
2022/03/28 07:41:55;;;;;;;1.93;1.83;;;18.90;42.20;;;;;;4904888;29;20462;-82
2022/03/28 07:44:23;;;;;;;1.90;1.80;;;18.90;42.20;;;;;;4908796;29;20493;-81
2022/03/28 07:46:52;;;;;;;2.17;2.00;;;18.90;42.20;;;;;;4905484;29;20501;-82
2022/03/28 07:49:23;;;;;;;2.00;1.90;;;19.00;42.00;;;;;;4905262;29;20485;-82
2022/03/28 07:51:52;;;;;;;2.13;2.03;;;19.00;42.00;;;;;;4906549;29;20465;-82
2022/03/28 07:54:23;;;;;;;2.20;2.10;;;19.00;42.20;;;;;;4906115;29;20477;-81
2022/03/28 07:56:51;;;;;;;1.57;1.50;;;18.90;42.10;;;;;;4907360;29;20508;-82
2022/03/28 07:59:21;;;;;;;1.90;1.80;;;19.00;42.10;;;;;;4909506;29;20453;-82
2022/03/28 08:01:49;;;;;;;1.80;1.70;;;18.90;42.10;;;;;;4910805;29;20477;-82
2022/03/28 08:04:19;;;;;;;1.90;1.80;;;18.90;42.10;;;;;;4908568;29;20477;-81
2022/03/28 08:06:48;;;;;;;2.23;2.13;;;18.90;42.10;;;;;;4909461;29;20526;-82
2022/03/28 08:09:17;;;;;;;1.93;1.83;;;19.00;42.00;;;;;;4909333;29;20498;-82
2022/03/28 08:11:47;;;;;;;1.90;1.80;;;18.90;42.00;;;;;;4908775;29;20449;-83
2022/03/28 08:14:15;;;;;;;1.90;1.80;;;19.00;42.20;;;;;;4908649;29;20461;-82
2022/03/28 08:16:44;;;;;;;1.87;1.77;;;18.90;42.10;;;;;;4907384;29;20498;-82
2022/03/28 08:19:13;;;;;;;1.70;1.70;;;19.00;42.20;;;;;;4907122;29;21048;-83
2022/03/28 08:21:42;;;;;;;1.70;1.60;;;19.00;42.80;;;;;;4909026;29;20450;-82
2022/03/28 08:24:11;;;;;;;1.87;1.43;;;19.00;42.10;;;;;;4915481;29;20454;-81
2022/03/28 08:26:43;;;;;;;2.03;1.83;;;19.00;42.10;;;;;;4911432;29;20501;-82
2022/03/28 08:29:14;;;;;;;1.80;1.70;;;19.10;42.00;;;;;;4912285;29;20484;-82
2022/03/28 08:31:44;;;;;;;2.00;1.90;;;19.00;41.90;;;;;;4910503;29;20485;-82
2022/03/28 08:34:12;;;;;;;1.77;1.67;;;19.10;41.90;;;;;;4917674;29;20485;-81
2022/03/28 08:36:45;;;;;;;2.40;2.27;;;19.10;42.00;;;;;;4916658;29;20473;-82
2022/03/28 08:39:19;;;;;;;2.10;2.00;;;19.10;41.80;;;;;;4912010;29;20467;-82
2022/03/28 08:41:51;;;;;;;2.10;2.00;;;19.10;41.90;;;;;;4908268;29;20548;-82
2022/03/28 08:44:26;;;;;;;1.83;1.73;;;19.20;41.90;;;;;;4910110;29;20465;-81
2022/03/28 08:46:56;;;;;;;2.13;1.67;;;19.20;41.90;;;;;;4910655;29;20481;-82
2022/03/28 08:49:28;;;;;;;1.90;1.80;;;19.20;41.70;;;;;;4912459;29;20516;-82
2022/03/28 08:51:57;;;;;;;1.57;1.57;;;19.20;41.70;;;;;;4903132;29;20492;-82
2022/03/28 08:54:29;;;;;;;2.10;2.00;;;19.20;41.70;;;;;;4904083;29;20446;-82
2022/03/28 08:56:59;;;;;;;1.90;1.80;;;19.30;41.70;;;;;;4901513;29;20477;-82
2022/03/28 08:59:32;;;;;;;2.00;1.90;;;19.30;41.60;;;;;;4902984;29;20457;-82
2022/03/28 09:02:01;;;;;;;1.97;1.87;;;19.30;41.60;;;;;;4904553;29;20458;-81
2022/03/28 09:04:37;;;;;;;1.90;1.80;;;19.30;41.60;;;;;;4910734;29;20495;-81
2022/03/28 09:07:06;;;;;;;2.03;1.93;;;19.30;41.60;;;;;;4913222;29;20511;-82
2022/03/28 09:09:36;;;;;;;1.90;1.80;;;19.40;41.70;;;;;;4911182;29;20525;-82
2022/03/28 09:12:09;;;;;;;1.80;1.70;;;19.40;41.70;;;;;;4909275;29;20449;-83
2022/03/28 09:14:45;;;;;;;2.20;2.10;;;19.40;41.60;;;;;;4911308;29;20473;-81
2022/03/28 09:17:18;;;;;;;1.87;1.77;;;19.40;41.60;;;;;;4910836;29;20478;-82
2022/03/28 09:19:49;;;;;;;3.33;1.87;;;19.50;41.50;;;;;;4909681;29;20481;-82
2022/03/28 09:22:20;;;;;;;2.03;1.93;;;19.50;41.40;;;;;;4908762;29;20431;-83
2022/03/28 09:24:49;;;;;;;1.90;1.80;;;19.60;41.40;;;;;;4908316;29;20461;-81
2022/03/28 09:27:20;;;;;;;1.70;1.60;;;19.60;41.40;;;;;;4895240;29;20470;-82
2022/03/28 09:30:08;;;;;;;2.10;2.00;;;19.60;41.40;;;;;;4890178;29;20478;-83
2022/03/28 09:32:57;;;;;;;2.03;1.93;;;19.60;41.40;;;;;;4901738;29;20554;-83
2022/03/28 09:36:09;;;;;;;2.00;1.90;;;19.70;41.20;;;;;;4890000;29;20461;-82
2022/03/28 09:39:07;;;;;;;2.03;1.93;;;19.70;41.30;;;;;;4889232;29;20481;-82
2022/03/28 09:42:20;;;;;;;2.10;2.00;;;19.70;41.10;;;;;;4911732;29;20461;-83
2022/03/28 09:45:33;;;;;;;1.60;1.53;;;19.70;41.30;;;;;;4884870;29;20478;-82
2022/03/28 09:48:33;;;;;;;2.20;2.10;;;19.70;41.40;;;;;;4870443;29;20447;-82
2022/03/28 09:52:06;;;;;;;2.30;2.20;;;19.80;41.20;;;;;;4846532;29;20473;-83
2022/03/28 09:54:51;;;;;;;1.70;1.70;;;19.70;41.20;;;;;;4840181;29;20452;-85
2022/03/28 09:57:21;;;;;;;2.23;1.90;;;19.70;41.20;;;;;;4826307;29;20517;-83
2022/03/28 09:59:49;;;;;;;2.33;2.13;;;19.70;41.30;;;;;;4832831;29;20448;-83
2022/03/28 10:02:24;;;;;;;2.00;1.90;;;19.80;41.20;;;;;;4835682;29;20457;-83
2022/03/28 10:04:57;;;;;;;2.30;2.20;;;19.80;41.10;;;;;;4825195;29;20454;-83
2022/03/28 10:07:25;;;;;;;2.13;2.03;;;19.90;41.00;;;;;;4834241;29;20518;-83
2022/03/28 10:09:54;;;;;;;2.03;1.93;;;19.90;41.10;;;;;;4893233;29;20473;-83
2022/03/28 10:12:23;;;;;;;2.00;1.90;;;19.90;41.00;;;;;;4910131;29;20529;-82
2022/03/28 10:15:00;;;;;;;2.30;2.20;;;19.90;41.00;;;;;;4909109;29;20596;-83
2022/03/28 10:17:32;;;;;;;2.30;2.20;;;19.90;40.90;;;;;;4908039;29;20473;-82
2022/03/28 10:20:04;;;;;;;4.10;1.83;;;20.00;41.10;;;;;;4898093;29;20518;-82
2022/03/28 10:23:00;;;;;;;2.37;2.17;;;20.00;40.90;;;;;;4890407;29;20474;-83
2022/03/28 10:25:30;;;;;;;2.50;2.40;;;20.10;40.90;;;;;;4902069;29;20449;-83
2022/03/28 10:28:02;;;;;;;2.27;2.13;;;20.20;40.90;;;;;;4902199;29;20494;-83
2022/03/28 10:30:37;;;;;;;2.27;2.17;;;20.20;40.70;;;;;;4900717;29;20481;-83
2022/03/28 10:33:10;;;;;;;2.30;2.17;;;20.30;40.80;;;;;;4904169;29;20473;-83
2022/03/28 10:35:39;;;;;;;2.20;2.10;;;20.40;40.50;;;;;;4904718;29;20478;-83
2022/03/28 10:38:25;;;;;;;2.40;2.30;;;20.40;40.60;;;;;;4902372;29;20469;-84
2022/03/28 10:40:59;;;;;;;5.50;2.00;;;20.40;40.70;;;;;;4902311;29;20833;-83
2022/03/28 10:43:32;;;;;;;1.90;1.80;;;20.40;40.60;;;;;;4904341;29;20493;-83
2022/03/28 10:46:19;;;;;;;2.17;2.00;;;20.50;40.50;;;;;;4903166;29;20504;-83
2022/03/28 10:49:33;;;;;;;2.47;2.27;;;20.60;40.30;;;;;;4896453;29;20443;-83
2022/03/28 10:52:39;;;;;;;2.10;2.00;;;20.80;40.30;;;;;;4901962;29;20523;-83
2022/03/28 10:55:26;;;;;;;3.23;2.50;;;20.70;40.20;;;;;;4905545;29;20482;-83
2022/03/28 10:58:02;;;;;;;2.70;2.33;;;20.80;40.10;;;;;;4900813;29;20450;-83
2022/03/28 11:00:33;;;;;;;3.83;2.23;;;20.80;40.00;;;;;;4898967;29;21028;-83
2022/03/28 11:03:05;;;;;;;2.47;2.37;;;20.80;40.20;;;;;;4901205;29;20461;-83
2022/03/28 11:06:00;;;;;;;2.33;2.23;;;20.70;40.30;;;;;;4905611;29;20450;-83
2022/03/28 11:08:43;;;;;;;3.23;2.93;;;20.80;40.20;;;;;;4900788;29;20450;-82
2022/03/28 11:11:19;;;;;;;3.43;2.50;;;20.90;40.40;;;;;;4900510;29;20477;-82
2022/03/28 11:14:04;;;;;;;4.50;2.40;;;21.10;40.00;;;;;;4901420;29;20442;-83
2022/03/28 11:16:45;;;;;;;2.40;2.30;;;21.10;40.00;;;;;;4892942;29;20485;-82
2022/03/28 11:19:29;;;;;;;3.23;2.63;;;21.20;39.80;;;;;;4899482;29;20449;-83
2022/03/28 11:21:59;;;;;;;2.50;2.30;;;21.20;39.80;;;;;;4900365;29;20450;-84
2022/03/28 11:24:49;;;;;;;2.60;2.50;;;21.30;39.60;;;;;;4882426;29;20454;-82
2022/03/28 11:27:30;;;;;;;2.67;2.57;;;21.40;39.50;;;;;;4899452;29;20465;-83
2022/03/28 11:30:03;;;;;;;2.33;2.23;;;21.50;39.40;;;;;;4905013;29;20475;-83
2022/03/28 11:32:36;;;;;;;2.47;2.33;;;21.60;39.40;;;;;;4904654;29;20446;-82
2022/03/28 11:35:09;;;;;;;2.53;2.37;;;21.80;39.30;;;;;;4892609;29;20451;-83
2022/03/28 11:37:54;;;;;;;2.20;2.10;;;21.90;39.20;;;;;;4910214;29;20481;-83
2022/03/28 11:40:48;;;;;;;2.40;2.30;;;22.20;39.40;;;;;;4911623;29;20430;-82
2022/03/28 11:46:30;;;;;;;2.40;2.30;;;24.00;36.30;;;;;;4906033;29;20517;-83
2022/03/28 11:49:10;;;;;;;2.53;2.43;;;23.90;36.50;;;;;;4909430;29;20456;-83
2022/03/28 11:51:43;;;;;;;2.30;2.10;;;23.90;36.60;;;;;;4908299;29;20511;-83
2022/03/28 11:54:12;;;;;;;2.40;2.30;;;23.90;36.60;;;;;;4908126;29;20455;-82
2022/03/28 11:59:31;;;;;;;2.77;2.57;;;24.30;36.60;;;;;;4897569;29;20482;-80
2022/03/28 12:02:02;;;;;;;2.37;2.27;;;24.30;36.40;;;;;;4889356;29;20459;-81
2022/03/28 12:04:31;;;;;;;2.60;2.00;;;24.70;37.00;;;;;;4901924;29;20480;-82
2022/03/28 12:07:00;;;;;;;2.27;2.07;;;25.90;34.60;;;;;;4898789;29;20453;-81
2022/03/28 12:09:29;;;;;;;2.20;2.10;;;25.50;34.50;;;;;;4899078;29;20537;-82
2022/03/28 12:11:59;;;;;;;2.13;2.03;;;25.40;34.80;;;;;;4900391;29;20496;-80
2022/03/28 12:14:31;;;;;;;2.17;2.07;;;25.20;35.10;;;;;;4884038;29;20476;-81
2022/03/28 12:16:59;;;;;;;2.37;2.23;;;25.00;35.80;;;;;;4880390;29;20475;-80
2022/03/28 12:19:28;;;;;;;1.80;1.70;;;24.80;36.50;;;;;;4880913;29;20879;-81
2022/03/28 12:21:57;;;;;;;4.50;2.40;;;24.80;36.50;;;;;;4881208;29;20502;-81
2022/03/28 12:24:28;;;;;;;2.70;1.80;;;25.00;36.10;;;;;;4882148;29;20465;-81
2022/03/28 12:26:59;;;;;;;3.00;2.30;;;24.90;36.00;;;;;;4881014;29;20478;-80
2022/03/28 12:29:33;;;;;;;2.30;2.20;;;24.80;36.60;;;;;;4895314;29;20551;-82
2022/03/28 12:32:04;;;;;;;2.50;2.40;;;24.60;36.60;;;;;;4893754;29;20478;-82
2022/03/28 12:34:34;;;;;;;3.77;1.90;;;24.50;36.70;;;;;;4900326;29;20458;-82
2022/03/28 12:37:59;;;;;;;2.30;2.10;;;24.30;37.30;;;;;;4935851;23;20486;-82
2022/03/28 12:40:46;;;;;;;2.10;2.00;;;24.10;37.70;;;;;;4969232;28;20449;-82
2022/03/28 12:43:35;;;;;;;;;;;;;;;;;;;;;
2022/03/28 12:46:29;;;;;;;2.03;1.90;;;24.00;37.50;;;;;;4979499;28;20497;-82
2022/03/28 12:48:58;;;;;;;3.63;2.30;;;23.90;37.60;;;;;;4975387;28;20446;-82
2022/03/28 12:51:28;;;;;;;2.67;2.10;;;24.00;37.50;;;;;;4974298;28;20485;-82
2022/03/28 12:54:02;;;;;;;2.10;2.00;;;24.00;37.30;;;;;;4959271;28;20417;-82
2022/03/28 12:56:31;;;;;;;2.63;2.43;;;24.10;37.30;;;;;;4958398;28;20489;-82
2022/03/28 12:59:02;;;;;;;3.90;2.70;;;24.10;37.40;;;;;;4960002;28;20451;-83
2022/03/28 13:01:32;;;;;;;2.87;2.50;;;24.30;37.10;;;;;;4959452;28;20451;-82
2022/03/28 13:04:11;;;;;;;2.40;2.17;;;24.30;37.00;;;;;;4960708;29;20462;-83
2022/03/28 13:06:44;;;;;;;2.20;2.10;;;24.20;37.10;;;;;;4961078;29;20508;-81
2022/03/28 13:09:12;;;;;;;4.70;2.37;;;24.30;37.20;;;;;;4965659;28;20450;-82
2022/03/28 13:11:41;;;;;;;2.70;2.50;;;24.30;36.90;;;;;;4971841;28;20482;-83
2022/03/28 13:14:12;;;;;;;2.50;2.33;;;24.30;37.10;;;;;;4968703;28;20455;-83
2022/03/28 13:16:41;;;;;;;6.50;2.37;;;24.30;37.00;;;;;;4975764;28;20474;-83
2022/03/28 13:19:09;;;;;;;3.43;2.33;;;24.20;37.10;;;;;;4971116;28;20485;-82
2022/03/28 13:21:40;;;;;;;2.70;2.50;;;24.10;37.30;;;;;;4992157;28;20454;-82
2022/03/28 13:24:09;;;;;;;2.43;2.20;;;24.10;37.30;;;;;;4990981;28;20473;-83
2022/03/28 13:26:44;;;;;;;3.73;2.73;;;24.00;37.40;;;;;;4989494;28;20469;-84
2022/03/28 13:29:20;;;;;;;3.57;2.77;;;23.90;37.50;;;;;;4992126;28;20400;-82
2022/03/28 13:31:50;;;;;;;6.00;2.77;;;23.80;37.50;;;;;;4989627;28;20449;-83
2022/03/28 13:34:18;;;;;;;2.63;2.43;;;23.80;37.80;;;;;;4974758;28;20434;-83
2022/03/28 13:36:46;;;;;;;3.73;2.73;;;23.70;37.80;;;;;;4974887;28;20463;-83
2022/03/28 13:39:14;;;;;;;7.60;2.43;;;23.70;37.80;;;;;;4974069;28;20427;-84
2022/03/28 13:41:42;;;;;;;5.83;2.50;;;23.60;37.70;;;;;;4974606;28;20439;-84
2022/03/28 13:44:25;;;;;;;3.90;2.90;;;23.60;37.80;;;;;;4972458;28;20502;-83
2022/03/28 13:47:08;;;;;;;3.60;2.53;;;23.60;37.90;;;;;;4972045;28;20467;-83
2022/03/28 13:49:38;;;;;;;2.70;2.43;;;23.50;37.90;;;;;;4974743;28;20514;-82
2022/03/28 13:52:08;;;;;;;5.30;2.50;;;23.50;38.00;;;;;;4976157;28;20466;-83
2022/03/28 13:54:36;;;;;;;5.73;2.53;;;23.40;38.10;;;;;;4975887;28;20447;-83
2022/03/28 13:57:05;;;;;;;2.83;2.53;;;23.40;38.70;;;;;;4976831;28;20465;-83
2022/03/28 13:59:33;;;;;;;3.10;2.67;;;23.50;38.10;;;;;;4975480;28;20546;-83
2022/03/28 14:02:05;;;;;;;3.37;2.30;;;23.40;38.00;;;;;;4974956;28;20514;-83
2022/03/28 14:04:36;;;;;;;8.03;2.33;;;23.50;38.20;;;;;;4976999;28;20439;-83
2022/03/28 14:07:05;;;;;;;4.43;2.60;;;23.40;38.20;;;;;;4975224;28;20445;-83
2022/03/28 14:09:33;;;;;;;5.47;2.40;;;23.40;38.20;;;;;;4986596;28;20416;-82
2022/03/28 14:12:01;;;;;;;3.33;2.47;;;23.50;38.20;;;;;;4994258;28;20474;-83
2022/03/28 14:14:29;;;;;;;5.70;2.77;;;23.50;38.20;;;;;;4994118;28;20450;-83
2022/03/28 14:16:58;;;;;;;2.70;2.50;;;23.50;38.20;;;;;;4975758;28;20499;-83
2022/03/28 14:19:29;;;;;;;4.63;2.83;;;23.90;38.20;;;;;;4974225;29;20455;-82
2022/03/28 14:21:58;;;;;;;3.50;2.30;;;23.70;37.70;;;;;;4973629;28;20454;-83
2022/03/28 14:24:26;;;;;;;6.27;2.63;;;23.70;37.90;;;;;;4983423;28;20510;-83
2022/03/28 14:26:55;;;;;;;2.60;2.50;;;23.80;38.00;;;;;;4993737;28;20466;-82
2022/03/28 14:29:25;;;;;;;4.00;2.40;;;23.90;38.00;;;;;;4995072;28;20450;-83
2022/03/28 14:31:53;;;;;;;5.23;2.53;;;23.80;37.80;;;;;;4993416;28;20475;-82
2022/03/28 14:34:24;;;;;;;3.57;2.67;;;23.80;37.90;;;;;;4995703;28;20442;-82
2022/03/28 14:36:54;;;;;;;4.20;2.70;;;23.90;37.80;;;;;;4996197;28;20497;-83
2022/03/28 14:39:32;;;;;;;6.70;2.60;;;23.90;37.80;;;;;;4995377;28;20545;-82
2022/03/28 14:42:04;;;;;;;2.67;2.50;;;23.90;37.70;;;;;;4994029;28;20434;-81
2022/03/28 14:44:32;;;;;;;2.40;2.20;;;24.10;37.90;;;;;;4992330;28;20450;-82
2022/03/28 14:47:03;;;;;;;2.80;2.57;;;24.00;37.80;;;;;;4991240;28;20493;-83
2022/03/28 14:49:31;;;;;;;2.87;2.40;;;24.30;37.80;;;;;;4994400;28;20462;-83
2022/03/28 14:52:01;;;;;;;3.63;2.37;;;24.20;37.50;;;;;;4989969;28;20466;-83
2022/03/28 14:54:29;;;;;;;5.30;2.67;;;24.40;37.90;;;;;;4988786;28;20516;-84
2022/03/28 14:56:58;;;;;;;3.67;2.70;;;25.20;37.30;;;;;;4988131;28;20440;-83
2022/03/28 14:59:26;;;;;;;3.13;2.43;;;25.80;35.40;;;;;;4992202;28;20417;-83
2022/03/28 15:01:56;;;;;;;2.47;2.27;;;26.10;35.50;;;;;;4995114;28;20441;-83
2022/03/28 15:04:24;;;;;;;2.97;2.53;;;25.80;35.00;;;;;;4996534;28;20431;-82
2022/03/28 15:06:52;;;;;;;5.97;2.60;;;25.60;35.50;;;;;;4997254;28;20450;-82
2022/03/28 15:09:23;;;;;;;4.80;2.30;;;25.50;35.70;;;;;;4993033;28;20446;-82
2022/03/28 15:11:51;;;;;;;5.40;2.67;;;25.60;35.90;;;;;;4992004;28;20448;-82
2022/03/28 15:14:20;;;;;;;2.77;2.57;;;25.40;35.90;;;;;;4984688;28;20434;-83
2022/03/28 15:16:49;;;;;;;2.47;2.37;;;25.20;35.90;;;;;;4970491;28;20542;-82
2022/03/28 15:19:30;;;;;;;2.83;2.63;;;25.00;36.20;;;;;;4962656;28;20489;-81